sensor_id;sensor_type;location;lat;lon;timestamp;temperature;humidity
76211;DHT22;65003;49.518;11.280;2024-02-14T00:01:44;3.70;99.90
76211;DHT22;65003;49.518;11.280;2024-02-14T00:04:10;3.70;99.90
76211;DHT22;65003;49.518;11.280;2024-02-14T00:06:37;3.50;99.90
76211;DHT22;65003;49.518;11.280;2024-02-14T00:09:03;3.50;99.90
76211;DHT22;65003;49.518;11.280;2024-02-14T00:11:30;3.50;99.90
76211;DHT22;65003;49.518;11.280;2024-02-14T00:13:56;3.50;99.90
76211;DHT22;65003;49.518;11.280;2024-02-14T00:16:23;3.50;99.90
76211;DHT22;65003;49.518;11.280;2024-02-14T00:18:50;3.40;99.90
76211;DHT22;65003;49.518;11.280;2024-02-14T00:21:16;3.40;99.90
76211;DHT22;65003;49.518;11.280;2024-02-14T00:23:43;3.40;99.90
76211;DHT22;65003;49.518;11.280;2024-02-14T00:26:09;3.40;99.90
76211;DHT22;65003;49.518;11.280;2024-02-14T00:28:36;3.30;99.90
76211;DHT22;65003;49.518;11.280;2024-02-14T00:31:03;3.30;99.90
76211;DHT22;65003;49.518;11.280;2024-02-14T00:33:29;3.30;99.90
76211;DHT22;65003;49.518;11.280;2024-02-14T00:35:56;3.10;99.90
76211;DHT22;65003;49.518;11.280;2024-02-14T00:38:22;3.30;99.90
76211;DHT22;65003;49.518;11.280;2024-02-14T00:40:49;3.30;99.90
76211;DHT22;65003;49.518;11.280;2024-02-14T00:43:16;3.30;99.90
76211;DHT22;65003;49.518;11.280;2024-02-14T00:45:42;3.30;99.90
76211;DHT22;65003;49.518;11.280;2024-02-14T00:48:09;3.20;99.90
76211;DHT22;65003;49.518;11.280;2024-02-14T00:50:35;3.20;99.90
76211;DHT22;65003;49.518;11.280;2024-02-14T00:53:02;3.30;99.90
76211;DHT22;65003;49.518;11.280;2024-02-14T00:55:29;3.20;99.90
76211;DHT22;65003;49.518;11.280;2024-02-14T00:57:55;3.20;99.90
76211;DHT22;65003;49.518;11.280;2024-02-14T01:00:22;3.20;99.90
76211;DHT22;65003;49.518;11.280;2024-02-14T01:02:48;3.20;99.90
76211;DHT22;65003;49.518;11.280;2024-02-14T01:05:15;3.20;99.90
76211;DHT22;65003;49.518;11.280;2024-02-14T01:07:41;3.30;99.90
76211;DHT22;65003;49.518;11.280;2024-02-14T01:10:08;3.10;99.90
76211;DHT22;65003;49.518;11.280;2024-02-14T01:12:35;3.20;99.90
76211;DHT22;65003;49.518;11.280;2024-02-14T01:15:02;3.00;99.90
76211;DHT22;65003;49.518;11.280;2024-02-14T01:17:28;3.00;99.90
76211;DHT22;65003;49.518;11.280;2024-02-14T01:19:55;2.90;99.90
76211;DHT22;65003;49.518;11.280;2024-02-14T01:22:21;2.90;99.90
76211;DHT22;65003;49.518;11.280;2024-02-14T01:24:48;2.90;99.90
76211;DHT22;65003;49.518;11.280;2024-02-14T01:27:14;2.80;99.90
76211;DHT22;65003;49.518;11.280;2024-02-14T01:29:41;2.20;99.90
76211;DHT22;65003;49.518;11.280;2024-02-14T01:32:08;2.90;99.90
76211;DHT22;65003;49.518;11.280;2024-02-14T01:34:34;2.70;99.90
76211;DHT22;65003;49.518;11.280;2024-02-14T01:37:01;2.80;99.90
76211;DHT22;65003;49.518;11.280;2024-02-14T01:39:27;2.70;99.90
76211;DHT22;65003;49.518;11.280;2024-02-14T01:41:54;2.70;99.90
76211;DHT22;65003;49.518;11.280;2024-02-14T01:44:21;2.90;99.90
76211;DHT22;65003;49.518;11.280;2024-02-14T01:46:47;2.80;99.90
76211;DHT22;65003;49.518;11.280;2024-02-14T01:49:14;2.80;99.90
76211;DHT22;65003;49.518;11.280;2024-02-14T01:51:40;2.60;99.90
76211;DHT22;65003;49.518;11.280;2024-02-14T01:54:07;2.80;99.90
76211;DHT22;65003;49.518;11.280;2024-02-14T01:56:34;2.80;99.90
76211;DHT22;65003;49.518;11.280;2024-02-14T01:59:00;3.00;99.90
76211;DHT22;65003;49.518;11.280;2024-02-14T02:01:27;3.00;99.90
76211;DHT22;65003;49.518;11.280;2024-02-14T02:03:53;2.90;99.90
76211;DHT22;65003;49.518;11.280;2024-02-14T02:06:20;3.00;99.90
76211;DHT22;65003;49.518;11.280;2024-02-14T02:08:47;3.00;99.90
76211;DHT22;65003;49.518;11.280;2024-02-14T02:11:13;3.20;99.90
76211;DHT22;65003;49.518;11.280;2024-02-14T02:13:40;3.10;99.90
76211;DHT22;65003;49.518;11.280;2024-02-14T02:16:06;3.20;99.90
76211;DHT22;65003;49.518;11.280;2024-02-14T02:18:33;3.20;99.90
76211;DHT22;65003;49.518;11.280;2024-02-14T02:21:00;3.20;99.90
76211;DHT22;65003;49.518;11.280;2024-02-14T02:23:26;3.40;99.90
76211;DHT22;65003;49.518;11.280;2024-02-14T02:25:53;3.20;99.90
76211;DHT22;65003;49.518;11.280;2024-02-14T02:28:19;3.10;99.90
76211;DHT22;65003;49.518;11.280;2024-02-14T02:30:46;3.10;99.90
76211;DHT22;65003;49.518;11.280;2024-02-14T02:33:12;3.00;99.90
76211;DHT22;65003;49.518;11.280;2024-02-14T02:35:41;3.10;99.90
76211;DHT22;65003;49.518;11.280;2024-02-14T02:38:06;3.10;99.90
76211;DHT22;65003;49.518;11.280;2024-02-14T02:40:32;3.10;99.90
76211;DHT22;65003;49.518;11.280;2024-02-14T02:42:59;3.20;99.90
76211;DHT22;65003;49.518;11.280;2024-02-14T02:45:25;3.50;99.90
76211;DHT22;65003;49.518;11.280;2024-02-14T02:47:52;3.40;99.90
76211;DHT22;65003;49.518;11.280;2024-02-14T02:50:19;3.50;99.90
76211;DHT22;65003;49.518;11.280;2024-02-14T02:52:46;3.60;99.90
76211;DHT22;65003;49.518;11.280;2024-02-14T02:55:12;3.70;99.90
76211;DHT22;65003;49.518;11.280;2024-02-14T02:57:40;3.70;99.90
76211;DHT22;65003;49.518;11.280;2024-02-14T03:00:06;4.20;99.90
76211;DHT22;65003;49.518;11.280;2024-02-14T03:02:33;3.80;99.90
76211;DHT22;65003;49.518;11.280;2024-02-14T03:05:00;3.80;99.90
76211;DHT22;65003;49.518;11.280;2024-02-14T03:07:26;3.70;99.90
76211;DHT22;65003;49.518;11.280;2024-02-14T03:09:53;3.50;99.90
76211;DHT22;65003;49.518;11.280;2024-02-14T03:12:19;3.40;99.90
76211;DHT22;65003;49.518;11.280;2024-02-14T03:14:46;3.50;99.90
76211;DHT22;65003;49.518;11.280;2024-02-14T03:17:13;3.30;99.90
76211;DHT22;65003;49.518;11.280;2024-02-14T03:19:39;3.40;99.90
76211;DHT22;65003;49.518;11.280;2024-02-14T03:22:06;3.40;99.90
76211;DHT22;65003;49.518;11.280;2024-02-14T03:24:32;3.30;99.90
76211;DHT22;65003;49.518;11.280;2024-02-14T03:26:59;3.40;99.90
76211;DHT22;65003;49.518;11.280;2024-02-14T03:29:26;3.40;99.90
76211;DHT22;65003;49.518;11.280;2024-02-14T03:31:52;2.60;99.90
76211;DHT22;65003;49.518;11.280;2024-02-14T03:34:19;3.10;99.90
76211;DHT22;65003;49.518;11.280;2024-02-14T03:36:45;3.10;99.90
76211;DHT22;65003;49.518;11.280;2024-02-14T03:39:12;3.10;99.90
76211;DHT22;65003;49.518;11.280;2024-02-14T03:41:38;3.20;99.90
76211;DHT22;65003;49.518;11.280;2024-02-14T03:44:05;3.30;99.90
76211;DHT22;65003;49.518;11.280;2024-02-14T03:46:32;3.40;99.90
76211;DHT22;65003;49.518;11.280;2024-02-14T03:48:58;3.50;99.90
76211;DHT22;65003;49.518;11.280;2024-02-14T03:51:25;3.30;99.90
76211;DHT22;65003;49.518;11.280;2024-02-14T03:53:52;3.30;99.90
76211;DHT22;65003;49.518;11.280;2024-02-14T03:56:19;3.30;99.90
76211;DHT22;65003;49.518;11.280;2024-02-14T03:58:46;3.30;99.90
76211;DHT22;65003;49.518;11.280;2024-02-14T04:01:12;3.20;99.90
76211;DHT22;65003;49.518;11.280;2024-02-14T04:03:39;3.20;99.90
76211;DHT22;65003;49.518;11.280;2024-02-14T04:06:05;3.20;99.90
76211;DHT22;65003;49.518;11.280;2024-02-14T04:08:32;3.10;99.90
76211;DHT22;65003;49.518;11.280;2024-02-14T04:10:59;3.10;99.90
76211;DHT22;65003;49.518;11.280;2024-02-14T04:13:25;3.10;99.90
76211;DHT22;65003;49.518;11.280;2024-02-14T04:15:52;3.20;99.90
76211;DHT22;65003;49.518;11.280;2024-02-14T04:18:18;3.20;99.90
76211;DHT22;65003;49.518;11.280;2024-02-14T04:20:45;3.10;99.90
76211;DHT22;65003;49.518;11.280;2024-02-14T04:23:11;3.80;99.90
76211;DHT22;65003;49.518;11.280;2024-02-14T04:25:38;3.10;99.90
76211;DHT22;65003;49.518;11.280;2024-02-14T04:28:05;3.10;99.90
76211;DHT22;65003;49.518;11.280;2024-02-14T04:30:31;3.20;99.90
76211;DHT22;65003;49.518;11.280;2024-02-14T04:32:58;2.90;99.90
76211;DHT22;65003;49.518;11.280;2024-02-14T04:35:24;2.80;99.90
76211;DHT22;65003;49.518;11.280;2024-02-14T04:37:51;2.80;99.90
76211;DHT22;65003;49.518;11.280;2024-02-14T04:40:18;2.80;99.90
76211;DHT22;65003;49.518;11.280;2024-02-14T04:42:44;2.80;99.90
76211;DHT22;65003;49.518;11.280;2024-02-14T04:45:11;2.80;99.90
76211;DHT22;65003;49.518;11.280;2024-02-14T04:47:37;2.70;99.90
76211;DHT22;65003;49.518;11.280;2024-02-14T04:50:04;2.70;99.90
76211;DHT22;65003;49.518;11.280;2024-02-14T04:52:31;2.70;99.90
76211;DHT22;65003;49.518;11.280;2024-02-14T04:54:57;2.70;99.90
76211;DHT22;65003;49.518;11.280;2024-02-14T04:57:24;2.80;99.90
76211;DHT22;65003;49.518;11.280;2024-02-14T04:59:50;2.90;99.90
76211;DHT22;65003;49.518;11.280;2024-02-14T05:02:17;3.00;99.90
76211;DHT22;65003;49.518;11.280;2024-02-14T05:04:44;3.20;99.90
76211;DHT22;65003;49.518;11.280;2024-02-14T05:07:10;3.00;99.90
76211;DHT22;65003;49.518;11.280;2024-02-14T05:09:37;3.00;99.90
76211;DHT22;65003;49.518;11.280;2024-02-14T05:12:03;3.00;99.90
76211;DHT22;65003;49.518;11.280;2024-02-14T05:14:30;3.20;99.90
76211;DHT22;65003;49.518;11.280;2024-02-14T05:16:57;2.90;99.90
76211;DHT22;65003;49.518;11.280;2024-02-14T05:19:23;3.00;99.90
76211;DHT22;65003;49.518;11.280;2024-02-14T05:21:50;3.30;99.90
76211;DHT22;65003;49.518;11.280;2024-02-14T05:24:16;3.20;99.90
76211;DHT22;65003;49.518;11.280;2024-02-14T05:26:43;3.40;99.90
76211;DHT22;65003;49.518;11.280;2024-02-14T05:29:10;3.50;99.90
76211;DHT22;65003;49.518;11.280;2024-02-14T05:31:44;3.50;99.90
76211;DHT22;65003;49.518;11.280;2024-02-14T05:34:10;3.60;99.90
76211;DHT22;65003;49.518;11.280;2024-02-14T05:36:36;3.60;99.90
76211;DHT22;65003;49.518;11.280;2024-02-14T05:39:03;3.70;99.90
76211;DHT22;65003;49.518;11.280;2024-02-14T05:41:29;3.70;99.90
76211;DHT22;65003;49.518;11.280;2024-02-14T05:43:56;3.60;99.90
76211;DHT22;65003;49.518;11.280;2024-02-14T05:46:22;3.80;99.90
76211;DHT22;65003;49.518;11.280;2024-02-14T05:48:49;3.90;99.90
76211;DHT22;65003;49.518;11.280;2024-02-14T05:51:16;4.00;99.90
76211;DHT22;65003;49.518;11.280;2024-02-14T05:53:42;3.90;99.90
76211;DHT22;65003;49.518;11.280;2024-02-14T05:56:09;4.00;99.90
76211;DHT22;65003;49.518;11.280;2024-02-14T05:58:35;3.90;99.90
76211;DHT22;65003;49.518;11.280;2024-02-14T06:01:02;3.90;99.90
76211;DHT22;65003;49.518;11.280;2024-02-14T06:03:29;4.20;99.90
76211;DHT22;65003;49.518;11.280;2024-02-14T06:05:55;4.20;99.90
76211;DHT22;65003;49.518;11.280;2024-02-14T06:08:22;4.30;99.90
76211;DHT22;65003;49.518;11.280;2024-02-14T06:10:48;4.70;99.90
76211;DHT22;65003;49.518;11.280;2024-02-14T06:13:15;5.00;99.90
76211;DHT22;65003;49.518;11.280;2024-02-14T06:15:41;5.10;99.90
76211;DHT22;65003;49.518;11.280;2024-02-14T06:18:08;5.20;99.90
76211;DHT22;65003;49.518;11.280;2024-02-14T06:20:35;5.30;99.90
76211;DHT22;65003;49.518;11.280;2024-02-14T06:23:01;5.20;99.90
76211;DHT22;65003;49.518;11.280;2024-02-14T06:25:28;5.10;99.90
76211;DHT22;65003;49.518;11.280;2024-02-14T06:27:54;5.20;99.90
76211;DHT22;65003;49.518;11.280;2024-02-14T06:30:21;5.10;99.90
76211;DHT22;65003;49.518;11.280;2024-02-14T06:32:48;4.10;99.90
76211;DHT22;65003;49.518;11.280;2024-02-14T06:35:14;5.00;99.90
76211;DHT22;65003;49.518;11.280;2024-02-14T06:37:41;4.80;99.90
76211;DHT22;65003;49.518;11.280;2024-02-14T06:40:08;5.00;99.90
76211;DHT22;65003;49.518;11.280;2024-02-14T06:42:34;5.00;99.90
76211;DHT22;65003;49.518;11.280;2024-02-14T06:45:01;5.00;99.90
76211;DHT22;65003;49.518;11.280;2024-02-14T06:47:28;5.10;99.90
76211;DHT22;65003;49.518;11.280;2024-02-14T06:49:54;5.00;99.90
76211;DHT22;65003;49.518;11.280;2024-02-14T06:52:21;5.00;99.90
76211;DHT22;65003;49.518;11.280;2024-02-14T06:54:47;5.00;99.90
76211;DHT22;65003;49.518;11.280;2024-02-14T06:57:14;5.10;99.90
76211;DHT22;65003;49.518;11.280;2024-02-14T06:59:41;5.10;99.90
76211;DHT22;65003;49.518;11.280;2024-02-14T07:02:07;5.20;99.90
76211;DHT22;65003;49.518;11.280;2024-02-14T07:04:34;5.20;99.90
76211;DHT22;65003;49.518;11.280;2024-02-14T07:07:00;5.30;99.90
76211;DHT22;65003;49.518;11.280;2024-02-14T07:09:27;5.30;99.90
76211;DHT22;65003;49.518;11.280;2024-02-14T07:11:53;5.30;99.90
76211;DHT22;65003;49.518;11.280;2024-02-14T07:14:20;5.30;99.90
76211;DHT22;65003;49.518;11.280;2024-02-14T07:16:47;5.30;99.90
76211;DHT22;65003;49.518;11.280;2024-02-14T07:19:13;5.30;99.90
76211;DHT22;65003;49.518;11.280;2024-02-14T07:21:40;5.50;99.90
76211;DHT22;65003;49.518;11.280;2024-02-14T07:24:06;5.60;99.90
76211;DHT22;65003;49.518;11.280;2024-02-14T07:26:33;5.50;99.90
76211;DHT22;65003;49.518;11.280;2024-02-14T07:29:01;6.30;99.90
76211;DHT22;65003;49.518;11.280;2024-02-14T07:31:28;5.40;99.90
76211;DHT22;65003;49.518;11.280;2024-02-14T07:33:54;5.20;99.90
76211;DHT22;65003;49.518;11.280;2024-02-14T07:36:21;5.20;99.90
76211;DHT22;65003;49.518;11.280;2024-02-14T07:38:47;5.10;99.90
76211;DHT22;65003;49.518;11.280;2024-02-14T07:41:14;4.90;99.90
76211;DHT22;65003;49.518;11.280;2024-02-14T07:43:40;4.90;99.90
76211;DHT22;65003;49.518;11.280;2024-02-14T07:46:07;4.10;99.90
76211;DHT22;65003;49.518;11.280;2024-02-14T07:48:34;5.00;99.90
76211;DHT22;65003;49.518;11.280;2024-02-14T07:51:00;5.00;99.90
76211;DHT22;65003;49.518;11.280;2024-02-14T07:53:27;5.20;99.90
76211;DHT22;65003;49.518;11.280;2024-02-14T07:55:54;5.30;99.90
76211;DHT22;65003;49.518;11.280;2024-02-14T07:58:20;5.40;99.90
76211;DHT22;65003;49.518;11.280;2024-02-14T08:00:47;5.60;99.90
76211;DHT22;65003;49.518;11.280;2024-02-14T08:03:13;5.80;99.90
76211;DHT22;65003;49.518;11.280;2024-02-14T08:05:40;5.90;99.90
76211;DHT22;65003;49.518;11.280;2024-02-14T08:08:07;6.10;99.90
76211;DHT22;65003;49.518;11.280;2024-02-14T08:10:34;6.30;99.90
76211;DHT22;65003;49.518;11.280;2024-02-14T08:13:00;6.50;99.90
76211;DHT22;65003;49.518;11.280;2024-02-14T08:15:27;6.60;99.90
76211;DHT22;65003;49.518;11.280;2024-02-14T08:17:53;6.60;99.90
76211;DHT22;65003;49.518;11.280;2024-02-14T08:20:20;6.70;99.90
76211;DHT22;65003;49.518;11.280;2024-02-14T08:22:47;6.70;99.90
76211;DHT22;65003;49.518;11.280;2024-02-14T08:25:13;6.70;99.90
76211;DHT22;65003;49.518;11.280;2024-02-14T08:27:40;6.90;99.90
76211;DHT22;65003;49.518;11.280;2024-02-14T08:30:07;7.00;99.90
76211;DHT22;65003;49.518;11.280;2024-02-14T08:32:34;7.20;99.90
76211;DHT22;65003;49.518;11.280;2024-02-14T08:35:00;7.50;99.90
76211;DHT22;65003;49.518;11.280;2024-02-14T08:37:27;7.80;99.90
76211;DHT22;65003;49.518;11.280;2024-02-14T08:39:54;7.60;99.90
76211;DHT22;65003;49.518;11.280;2024-02-14T08:42:20;7.90;99.90
76211;DHT22;65003;49.518;11.280;2024-02-14T08:44:47;7.90;99.90
76211;DHT22;65003;49.518;11.280;2024-02-14T08:47:14;8.70;99.90
76211;DHT22;65003;49.518;11.280;2024-02-14T08:49:40;8.20;99.90
76211;DHT22;65003;49.518;11.280;2024-02-14T08:52:07;8.30;99.90
76211;DHT22;65003;49.518;11.280;2024-02-14T08:54:33;8.30;99.90
76211;DHT22;65003;49.518;11.280;2024-02-14T08:57:00;8.30;99.90
76211;DHT22;65003;49.518;11.280;2024-02-14T08:59:27;8.30;99.90
76211;DHT22;65003;49.518;11.280;2024-02-14T09:01:53;8.20;99.90
76211;DHT22;65003;49.518;11.280;2024-02-14T09:04:20;8.10;99.90
76211;DHT22;65003;49.518;11.280;2024-02-14T09:06:46;8.20;99.90
76211;DHT22;65003;49.518;11.280;2024-02-14T09:09:13;8.30;99.90
76211;DHT22;65003;49.518;11.280;2024-02-14T09:11:40;8.50;99.90
76211;DHT22;65003;49.518;11.280;2024-02-14T09:14:06;8.50;99.90
76211;DHT22;65003;49.518;11.280;2024-02-14T09:16:33;8.70;99.90
76211;DHT22;65003;49.518;11.280;2024-02-14T09:19:00;8.80;99.90
76211;DHT22;65003;49.518;11.280;2024-02-14T09:21:27;8.80;99.90
76211;DHT22;65003;49.518;11.280;2024-02-14T09:23:54;8.90;99.90
76211;DHT22;65003;49.518;11.280;2024-02-14T09:26:20;9.00;99.90
76211;DHT22;65003;49.518;11.280;2024-02-14T09:28:47;9.60;99.90
76211;DHT22;65003;49.518;11.280;2024-02-14T09:31:20;8.80;99.90
76211;DHT22;65003;49.518;11.280;2024-02-14T09:33:47;8.80;99.90
76211;DHT22;65003;49.518;11.280;2024-02-14T09:36:13;9.00;99.90
76211;DHT22;65003;49.518;11.280;2024-02-14T09:38:40;9.20;99.90
76211;DHT22;65003;49.518;11.280;2024-02-14T09:41:18;9.50;99.90
76211;DHT22;65003;49.518;11.280;2024-02-14T09:43:44;9.60;99.90
76211;DHT22;65003;49.518;11.280;2024-02-14T09:46:13;9.80;99.90
76211;DHT22;65003;49.518;11.280;2024-02-14T09:48:39;9.90;99.90
76211;DHT22;65003;49.518;11.280;2024-02-14T09:51:06;10.10;99.90
76211;DHT22;65003;49.518;11.280;2024-02-14T09:53:32;10.30;99.90
76211;DHT22;65003;49.518;11.280;2024-02-14T09:55:59;10.30;99.90
76211;DHT22;65003;49.518;11.280;2024-02-14T09:58:25;10.40;99.90
76211;DHT22;65003;49.518;11.280;2024-02-14T10:00:52;10.40;99.90
76211;DHT22;65003;49.518;11.280;2024-02-14T10:03:19;11.20;99.90
76211;DHT22;65003;49.518;11.280;2024-02-14T10:05:45;10.10;99.90
76211;DHT22;65003;49.518;11.280;2024-02-14T10:08:12;10.00;99.90
76211;DHT22;65003;49.518;11.280;2024-02-14T10:10:38;9.90;99.90
76211;DHT22;65003;49.518;11.280;2024-02-14T10:13:05;9.80;99.90
76211;DHT22;65003;49.518;11.280;2024-02-14T10:15:32;9.70;99.90
76211;DHT22;65003;49.518;11.280;2024-02-14T10:17:58;9.70;99.90
76211;DHT22;65003;49.518;11.280;2024-02-14T10:20:25;9.60;99.90
76211;DHT22;65003;49.518;11.280;2024-02-14T10:22:51;9.60;99.90
76211;DHT22;65003;49.518;11.280;2024-02-14T10:25:18;9.70;99.90
76211;DHT22;65003;49.518;11.280;2024-02-14T10:27:45;9.50;99.90
76211;DHT22;65003;49.518;11.280;2024-02-14T10:30:11;9.80;99.90
76211;DHT22;65003;49.518;11.280;2024-02-14T10:32:39;9.80;99.90
76211;DHT22;65003;49.518;11.280;2024-02-14T10:35:06;9.90;99.90
76211;DHT22;65003;49.518;11.280;2024-02-14T10:37:33;10.10;99.90
76211;DHT22;65003;49.518;11.280;2024-02-14T10:40:00;10.30;99.90
76211;DHT22;65003;49.518;11.280;2024-02-14T10:42:26;10.70;99.90
76211;DHT22;65003;49.518;11.280;2024-02-14T10:44:54;11.50;99.90
76211;DHT22;65003;49.518;11.280;2024-02-14T10:47:19;12.10;99.90
76211;DHT22;65003;49.518;11.280;2024-02-14T10:49:47;12.50;99.90
76211;DHT22;65003;49.518;11.280;2024-02-14T10:52:13;12.60;99.90
76211;DHT22;65003;49.518;11.280;2024-02-14T10:54:40;12.60;99.90
76211;DHT22;65003;49.518;11.280;2024-02-14T10:57:06;12.70;99.90
76211;DHT22;65003;49.518;11.280;2024-02-14T10:59:34;12.50;99.90
76211;DHT22;65003;49.518;11.280;2024-02-14T11:02:01;12.40;99.90
76211;DHT22;65003;49.518;11.280;2024-02-14T11:04:28;12.30;99.90
76211;DHT22;65003;49.518;11.280;2024-02-14T11:06:54;12.30;99.90
76211;DHT22;65003;49.518;11.280;2024-02-14T11:09:21;12.20;99.90
76211;DHT22;65003;49.518;11.280;2024-02-14T11:11:48;13.30;99.90
76211;DHT22;65003;49.518;11.280;2024-02-14T11:14:15;12.10;99.90
76211;DHT22;65003;49.518;11.280;2024-02-14T11:16:44;11.90;99.90
76211;DHT22;65003;49.518;11.280;2024-02-14T11:19:09;11.80;99.90
76211;DHT22;65003;49.518;11.280;2024-02-14T11:21:39;11.90;99.90
76211;DHT22;65003;49.518;11.280;2024-02-14T11:24:04;11.70;99.90
76211;DHT22;65003;49.518;11.280;2024-02-14T11:26:37;11.70;99.90
76211;DHT22;65003;49.518;11.280;2024-02-14T11:28:59;11.70;99.90
76211;DHT22;65003;49.518;11.280;2024-02-14T11:31:30;11.60;99.90
76211;DHT22;65003;49.518;11.280;2024-02-14T11:33:52;11.50;99.90
76211;DHT22;65003;49.518;11.280;2024-02-14T11:36:19;11.40;99.90
76211;DHT22;65003;49.518;11.280;2024-02-14T11:38:45;11.20;99.90
76211;DHT22;65003;49.518;11.280;2024-02-14T11:41:12;11.30;99.90
76211;DHT22;65003;49.518;11.280;2024-02-14T11:43:39;11.30;99.90
76211;DHT22;65003;49.518;11.280;2024-02-14T11:46:05;11.70;99.90
76211;DHT22;65003;49.518;11.280;2024-02-14T11:48:32;11.80;99.90
76211;DHT22;65003;49.518;11.280;2024-02-14T11:50:58;12.30;99.90
76211;DHT22;65003;49.518;11.280;2024-02-14T11:53:25;12.60;99.90
76211;DHT22;65003;49.518;11.280;2024-02-14T11:55:51;12.80;99.90
76211;DHT22;65003;49.518;11.280;2024-02-14T11:58:18;12.70;99.90
76211;DHT22;65003;49.518;11.280;2024-02-14T12:00:45;12.50;99.90
76211;DHT22;65003;49.518;11.280;2024-02-14T12:03:15;12.50;99.90
76211;DHT22;65003;49.518;11.280;2024-02-14T12:05:39;12.40;99.90
76211;DHT22;65003;49.518;11.280;2024-02-14T12:08:06;12.60;99.90
76211;DHT22;65003;49.518;11.280;2024-02-14T12:10:34;12.40;99.90
76211;DHT22;65003;49.518;11.280;2024-02-14T12:13:04;12.20;99.90
76211;DHT22;65003;49.518;11.280;2024-02-14T12:15:26;12.40;99.90
76211;DHT22;65003;49.518;11.280;2024-02-14T12:17:54;12.30;99.90
76211;DHT22;65003;49.518;11.280;2024-02-14T12:20:21;12.20;99.90
76211;DHT22;65003;49.518;11.280;2024-02-14T12:22:49;12.10;99.90
76211;DHT22;65003;49.518;11.280;2024-02-14T12:25:13;12.10;99.90
76211;DHT22;65003;49.518;11.280;2024-02-14T12:27:40;11.90;99.90
76211;DHT22;65003;49.518;11.280;2024-02-14T12:30:07;11.80;99.90
76211;DHT22;65003;49.518;11.280;2024-02-14T12:32:33;11.70;99.90
76211;DHT22;65003;49.518;11.280;2024-02-14T12:35:00;11.90;99.90
76211;DHT22;65003;49.518;11.280;2024-02-14T12:37:27;10.90;99.90
76211;DHT22;65003;49.518;11.280;2024-02-14T12:39:53;12.00;99.90
76211;DHT22;65003;49.518;11.280;2024-02-14T12:42:20;11.90;99.90
76211;DHT22;65003;49.518;11.280;2024-02-14T12:44:46;11.90;99.90
76211;DHT22;65003;49.518;11.280;2024-02-14T12:47:13;12.00;99.90
76211;DHT22;65003;49.518;11.280;2024-02-14T12:49:40;12.00;99.90
76211;DHT22;65003;49.518;11.280;2024-02-14T12:52:06;12.30;99.90
76211;DHT22;65003;49.518;11.280;2024-02-14T12:54:33;12.00;99.90
76211;DHT22;65003;49.518;11.280;2024-02-14T12:56:59;12.10;99.90
76211;DHT22;65003;49.518;11.280;2024-02-14T12:59:26;12.10;99.90
76211;DHT22;65003;49.518;11.280;2024-02-14T13:01:53;12.00;99.90
76211;DHT22;65003;49.518;11.280;2024-02-14T13:04:19;12.20;99.90
76211;DHT22;65003;49.518;11.280;2024-02-14T13:06:46;12.10;99.90
76211;DHT22;65003;49.518;11.280;2024-02-14T13:09:12;12.00;99.90
76211;DHT22;65003;49.518;11.280;2024-02-14T13:11:39;11.80;99.90
76211;DHT22;65003;49.518;11.280;2024-02-14T13:14:06;11.60;99.90
76211;DHT22;65003;49.518;11.280;2024-02-14T13:16:32;11.50;99.90
76211;DHT22;65003;49.518;11.280;2024-02-14T13:18:59;11.70;99.90
76211;DHT22;65003;49.518;11.280;2024-02-14T13:21:25;11.30;99.90
76211;DHT22;65003;49.518;11.280;2024-02-14T13:23:52;11.10;99.90
76211;DHT22;65003;49.518;11.280;2024-02-14T13:26:19;11.00;99.90
76211;DHT22;65003;49.518;11.280;2024-02-14T13:28:46;11.10;99.90
76211;DHT22;65003;49.518;11.280;2024-02-14T13:31:12;11.30;99.90
76211;DHT22;65003;49.518;11.280;2024-02-14T13:33:39;11.40;99.90
76211;DHT22;65003;49.518;11.280;2024-02-14T13:36:06;11.40;99.90
76211;DHT22;65003;49.518;11.280;2024-02-14T13:38:32;11.50;99.90
76211;DHT22;65003;49.518;11.280;2024-02-14T13:41:02;11.60;99.90
76211;DHT22;65003;49.518;11.280;2024-02-14T13:43:28;11.80;99.90
76211;DHT22;65003;49.518;11.280;2024-02-14T13:45:55;11.80;99.90
76211;DHT22;65003;49.518;11.280;2024-02-14T13:48:22;11.90;99.90
76211;DHT22;65003;49.518;11.280;2024-02-14T13:50:49;12.00;99.90
76211;DHT22;65003;49.518;11.280;2024-02-14T13:53:16;12.10;99.90
76211;DHT22;65003;49.518;11.280;2024-02-14T13:55:42;12.30;99.90
76211;DHT22;65003;49.518;11.280;2024-02-14T13:58:09;12.20;99.90
76211;DHT22;65003;49.518;11.280;2024-02-14T14:00:35;12.20;99.90
76211;DHT22;65003;49.518;11.280;2024-02-14T14:03:02;12.40;99.90
76211;DHT22;65003;49.518;11.280;2024-02-14T14:05:29;12.30;99.90
76211;DHT22;65003;49.518;11.280;2024-02-14T14:07:55;12.20;99.90
76211;DHT22;65003;49.518;11.280;2024-02-14T14:10:22;12.20;99.90
76211;DHT22;65003;49.518;11.280;2024-02-14T14:12:48;12.30;99.90
76211;DHT22;65003;49.518;11.280;2024-02-14T14:15:15;12.20;99.90
76211;DHT22;65003;49.518;11.280;2024-02-14T14:17:42;12.20;99.90
76211;DHT22;65003;49.518;11.280;2024-02-14T14:20:09;12.00;99.90
76211;DHT22;65003;49.518;11.280;2024-02-14T14:22:35;12.10;99.90
76211;DHT22;65003;49.518;11.280;2024-02-14T14:25:02;11.90;99.90
76211;DHT22;65003;49.518;11.280;2024-02-14T14:27:29;11.80;99.90
76211;DHT22;65003;49.518;11.280;2024-02-14T14:29:55;11.90;99.90
76211;DHT22;65003;49.518;11.280;2024-02-14T14:32:22;11.80;99.90
76211;DHT22;65003;49.518;11.280;2024-02-14T14:34:49;11.80;99.90
76211;DHT22;65003;49.518;11.280;2024-02-14T14:37:15;12.20;99.90
76211;DHT22;65003;49.518;11.280;2024-02-14T14:39:42;11.50;99.90
76211;DHT22;65003;49.518;11.280;2024-02-14T14:42:08;11.50;99.90
76211;DHT22;65003;49.518;11.280;2024-02-14T14:44:35;11.60;99.90
76211;DHT22;65003;49.518;11.280;2024-02-14T14:47:02;11.50;99.90
76211;DHT22;65003;49.518;11.280;2024-02-14T14:49:28;11.60;99.90
76211;DHT22;65003;49.518;11.280;2024-02-14T14:51:55;11.60;99.90
76211;DHT22;65003;49.518;11.280;2024-02-14T14:54:22;11.40;99.90
76211;DHT22;65003;49.518;11.280;2024-02-14T14:56:52;11.60;99.90
76211;DHT22;65003;49.518;11.280;2024-02-14T14:59:15;11.30;99.90
76211;DHT22;65003;49.518;11.280;2024-02-14T15:01:42;11.40;99.90
76211;DHT22;65003;49.518;11.280;2024-02-14T15:04:08;11.40;99.90
76211;DHT22;65003;49.518;11.280;2024-02-14T15:06:35;11.40;99.90
76211;DHT22;65003;49.518;11.280;2024-02-14T15:09:01;11.50;99.90
76211;DHT22;65003;49.518;11.280;2024-02-14T15:11:28;11.50;99.90
76211;DHT22;65003;49.518;11.280;2024-02-14T15:13:55;11.50;99.90
76211;DHT22;65003;49.518;11.280;2024-02-14T15:16:21;11.50;99.90
76211;DHT22;65003;49.518;11.280;2024-02-14T15:18:48;11.50;99.90
76211;DHT22;65003;49.518;11.280;2024-02-14T15:21:14;11.50;99.90